sensor_id;sensor_type;location;lat;lon;timestamp;P1;durP1;ratioP1;P2;durP2;ratioP2
59880;SDS011;45751;51.380;10.326;2023-03-04T00:02:12;13.30;;;4.00;;
59880;SDS011;45751;51.380;10.326;2023-03-04T00:04:39;13.13;;;5.68;;
59880;SDS011;45751;51.380;10.326;2023-03-04T00:07:06;9.43;;;4.35;;
59880;SDS011;45751;51.380;10.326;2023-03-04T00:09:33;7.57;;;3.38;;
59880;SDS011;45751;51.380;10.326;2023-03-04T00:12:00;12.85;;;3.95;;
59880;SDS011;45751;51.380;10.326;2023-03-04T00:14:26;15.27;;;5.57;;
59880;SDS011;45751;51.380;10.326;2023-03-04T00:16:55;11.55;;;4.22;;
59880;SDS011;45751;51.380;10.326;2023-03-04T00:19:22;11.65;;;5.13;;
59880;SDS011;45751;51.380;10.326;2023-03-04T00:21:49;16.92;;;3.92;;
59880;SDS011;45751;51.380;10.326;2023-03-04T00:24:16;10.65;;;5.25;;
59880;SDS011;45751;51.380;10.326;2023-03-04T00:26:43;8.93;;;3.70;;
59880;SDS011;45751;51.380;10.326;2023-03-04T00:29:09;10.50;;;3.75;;
59880;SDS011;45751;51.380;10.326;2023-03-04T00:31:36;8.50;;;4.10;;
59880;SDS011;45751;51.380;10.326;2023-03-04T00:34:03;10.13;;;4.85;;
59880;SDS011;45751;51.380;10.326;2023-03-04T00:36:30;12.27;;;4.38;;
59880;SDS011;45751;51.380;10.326;2023-03-04T00:38:57;12.23;;;3.75;;
59880;SDS011;45751;51.380;10.326;2023-03-04T00:41:24;12.38;;;3.88;;
59880;SDS011;45751;51.380;10.326;2023-03-04T00:43:50;9.45;;;3.92;;
59880;SDS011;45751;51.380;10.326;2023-03-04T00:46:17;12.45;;;3.95;;
59880;SDS011;45751;51.380;10.326;2023-03-04T00:48:44;12.55;;;5.15;;
59880;SDS011;45751;51.380;10.326;2023-03-04T00:51:11;9.68;;;4.68;;
59880;SDS011;45751;51.380;10.326;2023-03-04T00:53:38;11.35;;;4.35;;
59880;SDS011;45751;51.380;10.326;2023-03-04T00:56:05;15.52;;;4.07;;
59880;SDS011;45751;51.380;10.326;2023-03-04T00:58:32;8.77;;;3.80;;
59880;SDS011;45751;51.380;10.326;2023-03-04T01:00:59;11.68;;;5.07;;
59880;SDS011;45751;51.380;10.326;2023-03-04T01:03:26;9.73;;;2.97;;
59880;SDS011;45751;51.380;10.326;2023-03-04T01:05:56;15.10;;;4.63;;
59880;SDS011;45751;51.380;10.326;2023-03-04T01:08:24;9.30;;;3.33;;
59880;SDS011;45751;51.380;10.326;2023-03-04T01:10:52;10.30;;;4.68;;
59880;SDS011;45751;51.380;10.326;2023-03-04T01:13:18;7.43;;;3.42;;
59880;SDS011;45751;51.380;10.326;2023-03-04T01:15:45;15.10;;;5.25;;
59880;SDS011;45751;51.380;10.326;2023-03-04T01:18:12;9.50;;;4.40;;
59880;SDS011;45751;51.380;10.326;2023-03-04T01:20:40;8.90;;;4.07;;
59880;SDS011;45751;51.380;10.326;2023-03-04T01:23:07;14.07;;;5.43;;
59880;SDS011;45751;51.380;10.326;2023-03-04T01:25:34;12.65;;;5.90;;
59880;SDS011;45751;51.380;10.326;2023-03-04T01:28:01;7.90;;;3.30;;
59880;SDS011;45751;51.380;10.326;2023-03-04T01:30:27;15.05;;;3.95;;
59880;SDS011;45751;51.380;10.326;2023-03-04T01:32:55;9.68;;;2.75;;
59880;SDS011;45751;51.380;10.326;2023-03-04T01:35:21;10.40;;;4.97;;
59880;SDS011;45751;51.380;10.326;2023-03-04T01:37:48;11.30;;;4.43;;
59880;SDS011;45751;51.380;10.326;2023-03-04T01:40:15;11.75;;;4.15;;
59880;SDS011;45751;51.380;10.326;2023-03-04T01:42:42;10.30;;;4.53;;
59880;SDS011;45751;51.380;10.326;2023-03-04T01:45:11;14.73;;;5.15;;
59880;SDS011;45751;51.380;10.326;2023-03-04T01:50:18;6.43;;;3.35;;
59880;SDS011;45751;51.380;10.326;2023-03-04T01:53:00;10.52;;;3.65;;
59880;SDS011;45751;51.380;10.326;2023-03-04T01:55:28;7.75;;;3.03;;
59880;SDS011;45751;51.380;10.326;2023-03-04T01:57:56;11.75;;;5.35;;
59880;SDS011;45751;51.380;10.326;2023-03-04T02:00:27;10.23;;;5.10;;
59880;SDS011;45751;51.380;10.326;2023-03-04T02:03:15;15.07;;;4.78;;
59880;SDS011;45751;51.380;10.326;2023-03-04T02:05:46;8.98;;;3.70;;
59880;SDS011;45751;51.380;10.326;2023-03-04T02:08:16;10.43;;;3.33;;
59880;SDS011;45751;51.380;10.326;2023-03-04T02:10:45;6.47;;;2.33;;
59880;SDS011;45751;51.380;10.326;2023-03-04T02:13:13;8.60;;;3.42;;
59880;SDS011;45751;51.380;10.326;2023-03-04T02:15:41;9.55;;;3.38;;
59880;SDS011;45751;51.380;10.326;2023-03-04T02:18:15;8.35;;;3.83;;
59880;SDS011;45751;51.380;10.326;2023-03-04T02:21:04;7.82;;;3.42;;
59880;SDS011;45751;51.380;10.326;2023-03-04T02:23:52;6.65;;;2.28;;
59880;SDS011;45751;51.380;10.326;2023-03-04T02:26:31;11.23;;;2.58;;
59880;SDS011;45751;51.380;10.326;2023-03-04T02:29:01;7.28;;;2.70;;
59880;SDS011;45751;51.380;10.326;2023-03-04T02:31:30;10.32;;;3.17;;
59880;SDS011;45751;51.380;10.326;2023-03-04T02:33:59;16.50;;;3.72;;
59880;SDS011;45751;51.380;10.326;2023-03-04T02:36:32;6.63;;;2.78;;
59880;SDS011;45751;51.380;10.326;2023-03-04T02:39:06;6.70;;;3.08;;
59880;SDS011;45751;51.380;10.326;2023-03-04T02:41:38;8.13;;;2.97;;
59880;SDS011;45751;51.380;10.326;2023-03-04T02:44:14;9.55;;;3.05;;
59880;SDS011;45751;51.380;10.326;2023-03-04T02:46:44;9.80;;;4.60;;
59880;SDS011;45751;51.380;10.326;2023-03-04T02:49:11;13.27;;;3.45;;
59880;SDS011;45751;51.380;10.326;2023-03-04T02:51:39;6.50;;;2.78;;
59880;SDS011;45751;51.380;10.326;2023-03-04T02:54:16;7.85;;;2.75;;
59880;SDS011;45751;51.380;10.326;2023-03-04T02:56:49;8.63;;;3.03;;
59880;SDS011;45751;51.380;10.326;2023-03-04T02:59:19;11.10;;;3.17;;
59880;SDS011;45751;51.380;10.326;2023-03-04T03:01:47;15.50;;;4.07;;
59880;SDS011;45751;51.380;10.326;2023-03-04T03:04:15;11.98;;;3.75;;
59880;SDS011;45751;51.380;10.326;2023-03-04T03:06:43;12.48;;;3.53;;
59880;SDS011;45751;51.380;10.326;2023-03-04T03:09:10;12.93;;;2.45;;
59880;SDS011;45751;51.380;10.326;2023-03-04T03:11:38;6.68;;;2.45;;
59880;SDS011;45751;51.380;10.326;2023-03-04T03:14:05;16.90;;;4.60;;
59880;SDS011;45751;51.380;10.326;2023-03-04T03:16:32;9.00;;;3.83;;
59880;SDS011;45751;51.380;10.326;2023-03-04T03:19:00;4.97;;;2.47;;
59880;SDS011;45751;51.380;10.326;2023-03-04T03:21:28;7.03;;;3.13;;
59880;SDS011;45751;51.380;10.326;2023-03-04T03:23:55;8.15;;;3.83;;
59880;SDS011;45751;51.380;10.326;2023-03-04T03:26:22;7.70;;;3.72;;
59880;SDS011;45751;51.380;10.326;2023-03-04T03:28:49;7.70;;;2.85;;
59880;SDS011;45751;51.380;10.326;2023-03-04T03:31:16;9.30;;;2.95;;
59880;SDS011;45751;51.380;10.326;2023-03-04T03:33:45;11.02;;;3.45;;
59880;SDS011;45751;51.380;10.326;2023-03-04T03:36:12;13.63;;;3.03;;
59880;SDS011;45751;51.380;10.326;2023-03-04T03:38:39;7.32;;;2.67;;
59880;SDS011;45751;51.380;10.326;2023-03-04T03:41:06;6.20;;;2.55;;
59880;SDS011;45751;51.380;10.326;2023-03-04T03:43:33;7.38;;;2.13;;
59880;SDS011;45751;51.380;10.326;2023-03-04T03:46:00;5.82;;;2.13;;
59880;SDS011;45751;51.380;10.326;2023-03-04T03:48:26;9.65;;;2.75;;
59880;SDS011;45751;51.380;10.326;2023-03-04T03:50:53;5.95;;;3.17;;
59880;SDS011;45751;51.380;10.326;2023-03-04T03:53:20;7.57;;;3.30;;
59880;SDS011;45751;51.380;10.326;2023-03-04T03:55:47;6.97;;;2.28;;
59880;SDS011;45751;51.380;10.326;2023-03-04T03:58:14;11.98;;;3.50;;
59880;SDS011;45751;51.380;10.326;2023-03-04T04:00:40;12.95;;;3.35;;
59880;SDS011;45751;51.380;10.326;2023-03-04T04:03:08;6.18;;;2.20;;
59880;SDS011;45751;51.380;10.326;2023-03-04T04:05:39;7.47;;;2.25;;
59880;SDS011;45751;51.380;10.326;2023-03-04T04:08:06;6.50;;;2.92;;
59880;SDS011;45751;51.380;10.326;2023-03-04T04:10:35;24.63;;;2.75;;
59880;SDS011;45751;51.380;10.326;2023-03-04T04:13:02;11.40;;;2.40;;
59880;SDS011;45751;51.380;10.326;2023-03-04T04:15:29;20.58;;;3.55;;
59880;SDS011;45751;51.380;10.326;2023-03-04T04:17:56;8.05;;;1.80;;
59880;SDS011;45751;51.380;10.326;2023-03-04T04:20:22;5.35;;;1.95;;
59880;SDS011;45751;51.380;10.326;2023-03-04T04:22:51;13.15;;;2.63;;
59880;SDS011;45751;51.380;10.326;2023-03-04T04:25:18;11.38;;;3.13;;
59880;SDS011;45751;51.380;10.326;2023-03-04T04:27:45;4.50;;;1.88;;
59880;SDS011;45751;51.380;10.326;2023-03-04T04:30:12;8.88;;;2.67;;
59880;SDS011;45751;51.380;10.326;2023-03-04T04:32:39;6.85;;;2.25;;
59880;SDS011;45751;51.380;10.326;2023-03-04T04:35:06;5.50;;;2.17;;
59880;SDS011;45751;51.380;10.326;2023-03-04T04:37:34;4.55;;;1.95;;
59880;SDS011;45751;51.380;10.326;2023-03-04T04:40:01;9.02;;;2.65;;
59880;SDS011;45751;51.380;10.326;2023-03-04T04:42:28;11.18;;;1.83;;
59880;SDS011;45751;51.380;10.326;2023-03-04T04:44:55;5.88;;;2.53;;
59880;SDS011;45751;51.380;10.326;2023-03-04T04:47:23;8.15;;;2.13;;
59880;SDS011;45751;51.380;10.326;2023-03-04T04:49:50;4.68;;;1.60;;
59880;SDS011;45751;51.380;10.326;2023-03-04T04:52:17;8.32;;;2.67;;
59880;SDS011;45751;51.380;10.326;2023-03-04T04:54:44;4.95;;;1.77;;
59880;SDS011;45751;51.380;10.326;2023-03-04T04:57:10;13.75;;;2.83;;
59880;SDS011;45751;51.380;10.326;2023-03-04T04:59:37;6.97;;;2.05;;
59880;SDS011;45751;51.380;10.326;2023-03-04T05:02:04;8.32;;;2.30;;
59880;SDS011;45751;51.380;10.326;2023-03-04T05:04:31;6.10;;;2.78;;
59880;SDS011;45751;51.380;10.326;2023-03-04T05:06:58;5.13;;;2.25;;
59880;SDS011;45751;51.380;10.326;2023-03-04T05:09:24;8.98;;;2.13;;
59880;SDS011;45751;51.380;10.326;2023-03-04T05:11:51;6.30;;;1.73;;
59880;SDS011;45751;51.380;10.326;2023-03-04T05:14:18;4.93;;;2.03;;
59880;SDS011;45751;51.380;10.326;2023-03-04T05:16:45;9.27;;;3.40;;
59880;SDS011;45751;51.380;10.326;2023-03-04T05:19:12;14.68;;;1.90;;
59880;SDS011;45751;51.380;10.326;2023-03-04T05:21:39;7.15;;;2.15;;
59880;SDS011;45751;51.380;10.326;2023-03-04T05:24:06;5.32;;;1.90;;
59880;SDS011;45751;51.380;10.326;2023-03-04T05:26:33;4.70;;;1.27;;
59880;SDS011;45751;51.380;10.326;2023-03-04T05:29:00;6.45;;;1.45;;
59880;SDS011;45751;51.380;10.326;2023-03-04T05:31:27;15.38;;;2.05;;
59880;SDS011;45751;51.380;10.326;2023-03-04T05:33:54;10.02;;;1.77;;
59880;SDS011;45751;51.380;10.326;2023-03-04T05:36:21;7.20;;;1.52;;
59880;SDS011;45751;51.380;10.326;2023-03-04T05:38:49;7.75;;;1.70;;
59880;SDS011;45751;51.380;10.326;2023-03-04T05:41:16;9.27;;;1.73;;
59880;SDS011;45751;51.380;10.326;2023-03-04T05:46:16;7.07;;;1.88;;
59880;SDS011;45751;51.380;10.326;2023-03-04T05:48:44;6.75;;;1.83;;
59880;SDS011;45751;51.380;10.326;2023-03-04T05:51:11;7.20;;;2.20;;
59880;SDS011;45751;51.380;10.326;2023-03-04T05:53:38;9.25;;;2.35;;
59880;SDS011;45751;51.380;10.326;2023-03-04T05:56:10;8.07;;;1.88;;
59880;SDS011;45751;51.380;10.326;2023-03-04T05:58:39;5.63;;;2.83;;
59880;SDS011;45751;51.380;10.326;2023-03-04T06:01:06;7.78;;;1.27;;
59880;SDS011;45751;51.380;10.326;2023-03-04T06:03:33;7.05;;;1.98;;
59880;SDS011;45751;51.380;10.326;2023-03-04T06:06:00;13.82;;;1.40;;
59880;SDS011;45751;51.380;10.326;2023-03-04T06:08:27;4.15;;;1.38;;
59880;SDS011;45751;51.380;10.326;2023-03-04T06:10:55;4.82;;;1.95;;
59880;SDS011;45751;51.380;10.326;2023-03-04T06:13:22;13.73;;;1.05;;
59880;SDS011;45751;51.380;10.326;2023-03-04T06:15:56;4.22;;;1.70;;
59880;SDS011;45751;51.380;10.326;2023-03-04T06:18:25;3.67;;;0.82;;
59880;SDS011;45751;51.380;10.326;2023-03-04T06:20:56;5.80;;;1.27;;
59880;SDS011;45751;51.380;10.326;2023-03-04T06:23:25;5.55;;;1.55;;
59880;SDS011;45751;51.380;10.326;2023-03-04T06:25:53;7.00;;;1.17;;
59880;SDS011;45751;51.380;10.326;2023-03-04T06:28:21;4.05;;;1.25;;
59880;SDS011;45751;51.380;10.326;2023-03-04T06:30:52;5.03;;;1.10;;
59880;SDS011;45751;51.380;10.326;2023-03-04T06:33:21;3.97;;;1.30;;
59880;SDS011;45751;51.380;10.326;2023-03-04T06:35:48;2.20;;;0.75;;
59880;SDS011;45751;51.380;10.326;2023-03-04T06:38:21;4.00;;;1.17;;
59880;SDS011;45751;51.380;10.326;2023-03-04T06:40:48;4.22;;;1.73;;
59880;SDS011;45751;51.380;10.326;2023-03-04T06:43:14;5.95;;;1.60;;
59880;SDS011;45751;51.380;10.326;2023-03-04T06:45:41;4.47;;;1.45;;
59880;SDS011;45751;51.380;10.326;2023-03-04T06:48:08;2.83;;;0.82;;
59880;SDS011;45751;51.380;10.326;2023-03-04T06:50:35;8.50;;;2.00;;
59880;SDS011;45751;51.380;10.326;2023-03-04T06:53:04;3.78;;;1.00;;
59880;SDS011;45751;51.380;10.326;2023-03-04T06:55:31;2.03;;;0.50;;
59880;SDS011;45751;51.380;10.326;2023-03-04T06:57:58;2.88;;;0.85;;
59880;SDS011;45751;51.380;10.326;2023-03-04T07:00:24;4.28;;;1.70;;
59880;SDS011;45751;51.380;10.326;2023-03-04T07:02:51;8.95;;;1.50;;
59880;SDS011;45751;51.380;10.326;2023-03-04T07:05:20;2.95;;;0.80;;
59880;SDS011;45751;51.380;10.326;2023-03-04T07:07:47;3.70;;;1.17;;
59880;SDS011;45751;51.380;10.326;2023-03-04T07:10:16;3.95;;;2.05;;
59880;SDS011;45751;51.380;10.326;2023-03-04T07:12:43;7.03;;;1.83;;
59880;SDS011;45751;51.380;10.326;2023-03-04T07:15:10;6.95;;;1.67;;
59880;SDS011;45751;51.380;10.326;2023-03-04T07:17:37;5.70;;;1.55;;
59880;SDS011;45751;51.380;10.326;2023-03-04T07:20:05;9.65;;;1.02;;
59880;SDS011;45751;51.380;10.326;2023-03-04T07:22:32;6.10;;;1.38;;
59880;SDS011;45751;51.380;10.326;2023-03-04T07:24:59;1.83;;;0.70;;
59880;SDS011;45751;51.380;10.326;2023-03-04T07:27:25;2.75;;;1.10;;
59880;SDS011;45751;51.380;10.326;2023-03-04T07:29:52;3.83;;;1.08;;
59880;SDS011;45751;51.380;10.326;2023-03-04T07:32:19;3.25;;;1.00;;
59880;SDS011;45751;51.380;10.326;2023-03-04T07:34:47;4.68;;;1.52;;
59880;SDS011;45751;51.380;10.326;2023-03-04T07:37:13;4.10;;;0.70;;
59880;SDS011;45751;51.380;10.326;2023-03-04T07:39:40;3.00;;;1.00;;
59880;SDS011;45751;51.380;10.326;2023-03-04T07:42:07;10.80;;;1.77;;
59880;SDS011;45751;51.380;10.326;2023-03-04T07:44:38;2.30;;;0.55;;
59880;SDS011;45751;51.380;10.326;2023-03-04T07:47:05;2.58;;;1.08;;
59880;SDS011;45751;51.380;10.326;2023-03-04T07:49:32;10.10;;;1.23;;
59880;SDS011;45751;51.380;10.326;2023-03-04T07:52:02;3.20;;;1.30;;
59880;SDS011;45751;51.380;10.326;2023-03-04T07:54:29;2.03;;;0.82;;
59880;SDS011;45751;51.380;10.326;2023-03-04T07:57:06;5.70;;;1.30;;
59880;SDS011;45751;51.380;10.326;2023-03-04T07:59:33;2.65;;;0.77;;
59880;SDS011;45751;51.380;10.326;2023-03-04T08:02:00;3.45;;;1.20;;
59880;SDS011;45751;51.380;10.326;2023-03-04T08:04:30;1.90;;;0.57;;
59880;SDS011;45751;51.380;10.326;2023-03-04T08:06:57;4.70;;;1.02;;
59880;SDS011;45751;51.380;10.326;2023-03-04T08:09:23;1.95;;;0.77;;
59880;SDS011;45751;51.380;10.326;2023-03-04T08:11:50;3.97;;;1.05;;
59880;SDS011;45751;51.380;10.326;2023-03-04T08:14:17;2.40;;;0.75;;
59880;SDS011;45751;51.380;10.326;2023-03-04T08:16:45;7.13;;;2.00;;
59880;SDS011;45751;51.380;10.326;2023-03-04T08:19:12;6.57;;;1.15;;
59880;SDS011;45751;51.380;10.326;2023-03-04T08:21:43;2.83;;;0.90;;
59880;SDS011;45751;51.380;10.326;2023-03-04T08:24:12;2.78;;;1.00;;
59880;SDS011;45751;51.380;10.326;2023-03-04T08:26:40;4.82;;;0.80;;
59880;SDS011;45751;51.380;10.326;2023-03-04T08:29:16;3.90;;;1.35;;
59880;SDS011;45751;51.380;10.326;2023-03-04T08:31:46;7.50;;;1.95;;
59880;SDS011;45751;51.380;10.326;2023-03-04T08:34:15;3.25;;;1.30;;
59880;SDS011;45751;51.380;10.326;2023-03-04T08:36:43;4.60;;;1.52;;
59880;SDS011;45751;51.380;10.326;2023-03-04T08:39:11;3.90;;;1.75;;
59880;SDS011;45751;51.380;10.326;2023-03-04T08:41:39;4.15;;;1.42;;
59880;SDS011;45751;51.380;10.326;2023-03-04T08:44:07;3.67;;;1.00;;
59880;SDS011;45751;51.380;10.326;2023-03-04T08:49:10;2.70;;;1.25;;
59880;SDS011;45751;51.380;10.326;2023-03-04T08:51:38;5.80;;;0.85;;
59880;SDS011;45751;51.380;10.326;2023-03-04T08:54:05;1.23;;;0.40;;
59880;SDS011;45751;51.380;10.326;2023-03-04T08:56:32;6.43;;;1.38;;
59880;SDS011;45751;51.380;10.326;2023-03-04T08:58:59;2.85;;;1.17;;
59880;SDS011;45751;51.380;10.326;2023-03-04T09:01:26;3.88;;;1.23;;
59880;SDS011;45751;51.380;10.326;2023-03-04T09:03:53;3.80;;;1.00;;
59880;SDS011;45751;51.380;10.326;2023-03-04T09:06:20;4.72;;;1.33;;
59880;SDS011;45751;51.380;10.326;2023-03-04T09:08:47;3.05;;;0.98;;
59880;SDS011;45751;51.380;10.326;2023-03-04T09:11:14;6.38;;;1.10;;
59880;SDS011;45751;51.380;10.326;2023-03-04T09:13:41;1.92;;;0.70;;
59880;SDS011;45751;51.380;10.326;2023-03-04T09:16:09;5.32;;;1.00;;
59880;SDS011;45751;51.380;10.326;2023-03-04T09:18:37;6.35;;;1.65;;
59880;SDS011;45751;51.380;10.326;2023-03-04T09:21:06;6.50;;;1.23;;
59880;SDS011;45751;51.380;10.326;2023-03-04T09:23:34;3.30;;;1.55;;
59880;SDS011;45751;51.380;10.326;2023-03-04T09:26:12;3.22;;;0.98;;
59880;SDS011;45751;51.380;10.326;2023-03-04T09:28:54;1.95;;;0.95;;
59880;SDS011;45751;51.380;10.326;2023-03-04T09:31:23;6.95;;;1.52;;
59880;SDS011;45751;51.380;10.326;2023-03-04T09:33:51;3.63;;;1.20;;
59880;SDS011;45751;51.380;10.326;2023-03-04T09:36:19;10.30;;;1.98;;
59880;SDS011;45751;51.380;10.326;2023-03-04T09:38:46;5.80;;;1.17;;
59880;SDS011;45751;51.380;10.326;2023-03-04T09:44:36;3.28;;;1.08;;
59880;SDS011;45751;51.380;10.326;2023-03-04T09:47:05;2.47;;;1.02;;
59880;SDS011;45751;51.380;10.326;2023-03-04T09:49:43;6.30;;;1.63;;
59880;SDS011;45751;51.380;10.326;2023-03-04T09:55:04;6.43;;;1.88;;
59880;SDS011;45751;51.380;10.326;2023-03-04T09:58:13;3.28;;;1.05;;
59880;SDS011;45751;51.380;10.326;2023-03-04T10:00:54;3.55;;;1.45;;
59880;SDS011;45751;51.380;10.326;2023-03-04T10:03:24;4.95;;;1.23;;
59880;SDS011;45751;51.380;10.326;2023-03-04T10:06:05;4.35;;;1.10;;
59880;SDS011;45751;51.380;10.326;2023-03-04T10:08:45;3.83;;;1.20;;
59880;SDS011;45751;51.380;10.326;2023-03-04T10:11:30;3.90;;;1.08;;
59880;SDS011;45751;51.380;10.326;2023-03-04T10:16:51;3.30;;;0.93;;
59880;SDS011;45751;51.380;10.326;2023-03-04T10:19:34;6.43;;;1.65;;
59880;SDS011;45751;51.380;10.326;2023-03-04T10:25:19;4.78;;;1.42;;
59880;SDS011;45751;51.380;10.326;2023-03-04T10:28:09;3.13;;;0.95;;
59880;SDS011;45751;51.380;10.326;2023-03-04T10:33:22;4.85;;;1.10;;
59880;SDS011;45751;51.380;10.326;2023-03-04T10:36:00;3.13;;;1.42;;
59880;SDS011;45751;51.380;10.326;2023-03-04T10:38:33;3.47;;;1.27;;
59880;SDS011;45751;51.380;10.326;2023-03-04T10:41:10;2.93;;;1.10;;
59880;SDS011;45751;51.380;10.326;2023-03-04T10:43:42;4.90;;;1.55;;
59880;SDS011;45751;51.380;10.326;2023-03-04T10:46:15;3.60;;;0.63;;
59880;SDS011;45751;51.380;10.326;2023-03-04T10:48:42;12.48;;;1.42;;
59880;SDS011;45751;51.380;10.326;2023-03-04T10:53:48;3.72;;;0.93;;
59880;SDS011;45751;51.380;10.326;2023-03-04T11:07:50;2.88;;;0.70;;
59880;SDS011;45751;51.380;10.326;2023-03-04T11:13:11;4.95;;;1.60;;
59880;SDS011;45751;51.380;10.326;2023-03-04T11:16:02;2.67;;;1.02;;
59880;SDS011;45751;51.380;10.326;2023-03-04T11:18:38;2.83;;;0.80;;
59880;SDS011;45751;51.380;10.326;2023-03-04T11:21:16;3.15;;;1.02;;
59880;SDS011;45751;51.380;10.326;2023-03-04T11:23:52;5.40;;;1.50;;
59880;SDS011;45751;51.380;10.326;2023-03-04T11:26:25;3.42;;;0.90;;
59880;SDS011;45751;51.380;10.326;2023-03-04T11:28:59;2.35;;;0.88;;
59880;SDS011;45751;51.380;10.326;2023-03-04T11:31:39;4.57;;;1.30;;
59880;SDS011;45751;51.380;10.326;2023-03-04T11:34:16;2.38;;;0.77;;
59880;SDS011;45751;51.380;10.326;2023-03-04T11:39:32;3.28;;;1.00;;
59880;SDS011;45751;51.380;10.326;2023-03-04T11:42:16;2.17;;;0.73;;
59880;SDS011;45751;51.380;10.326;2023-03-04T11:44:50;6.15;;;1.08;;
59880;SDS011;45751;51.380;10.326;2023-03-04T11:47:21;4.57;;;1.30;;
59880;SDS011;45751;51.380;10.326;2023-03-04T12:01:07;3.85;;;0.90;;
59880;SDS011;45751;51.380;10.326;2023-03-04T12:03:52;2.65;;;1.30;;
59880;SDS011;45751;51.380;10.326;2023-03-04T12:09:27;4.63;;;1.23;;
59880;SDS011;45751;51.380;10.326;2023-03-04T12:17:49;4.47;;;1.30;;
59880;SDS011;45751;51.380;10.326;2023-03-04T12:31:37;3.67;;;0.82;;
59880;SDS011;45751;51.380;10.326;2023-03-04T12:36:48;4.85;;;1.25;;
59880;SDS011;45751;51.380;10.326;2023-03-04T12:44:41;9.10;;;1.52;;
59880;SDS011;45751;51.380;10.326;2023-03-04T12:55:43;3.10;;;1.17;;
59880;SDS011;45751;51.380;10.326;2023-03-04T12:58:17;5.68;;;1.58;;
59880;SDS011;45751;51.380;10.326;2023-03-04T13:06:11;3.50;;;0.90;;
59880;SDS011;45751;51.380;10.326;2023-03-04T13:08:58;4.80;;;1.60;;
59880;SDS011;45751;51.380;10.326;2023-03-04T13:11:39;5.55;;;1.25;;
59880;SDS011;45751;51.380;10.326;2023-03-04T13:25:46;3.75;;;1.55;;
59880;SDS011;45751;51.380;10.326;2023-03-04T13:54:20;10.05;;;3.42;;
59880;SDS011;45751;51.380;10.326;2023-03-04T13:59:48;5.55;;;1.92;;
59880;SDS011;45751;51.380;10.326;2023-03-04T14:02:21;3.65;;;1.27;;
59880;SDS011;45751;51.380;10.326;2023-03-04T14:04:58;4.55;;;2.85;;
59880;SDS011;45751;51.380;10.326;2023-03-04T14:07:33;4.10;;;1.10;;
59880;SDS011;45751;51.380;10.326;2023-03-04T14:12:47;3.00;;;1.17;;
59880;SDS011;45751;51.380;10.326;2023-03-04T14:15:21;4.57;;;1.25;;
59880;SDS011;45751;51.380;10.326;2023-03-04T14:17:50;4.97;;;1.20;;
59880;SDS011;45751;51.380;10.326;2023-03-04T14:20:26;3.80;;;1.08;;
59880;SDS011;45751;51.380;10.326;2023-03-04T14:22:59;4.50;;;1.55;;
59880;SDS011;45751;51.380;10.326;2023-03-04T14:25:31;3.25;;;0.70;;
59880;SDS011;45751;51.380;10.326;2023-03-04T14:30:29;3.85;;;1.30;;
59880;SDS011;45751;51.380;10.326;2023-03-04T14:33:11;5.93;;;1.20;;
59880;SDS011;45751;51.380;10.326;2023-03-04T14:35:47;5.55;;;1.65;;
59880;SDS011;45751;51.380;10.326;2023-03-04T14:41:07;5.15;;;1.88;;
59880;SDS011;45751;51.380;10.326;2023-03-04T14:43:55;7.32;;;1.33;;
59880;SDS011;45751;51.380;10.326;2023-03-04T14:46:54;5.03;;;1.70;;
59880;SDS011;45751;51.380;10.326;2023-03-04T14:49:34;4.15;;;1.33;;
59880;SDS011;45751;51.380;10.326;2023-03-04T14:52:02;4.35;;;1.65;;
59880;SDS011;45751;51.380;10.326;2023-03-04T14:54:37;3.03;;;0.80;;
59880;SDS011;45751;51.380;10.326;2023-03-04T14:57:19;5.53;;;1.10;;
59880;SDS011;45751;51.380;10.326;2023-03-04T15:02:36;2.28;;;0.98;;
59880;SDS011;45751;51.380;10.326;2023-03-04T15:05:08;3.10;;;1.00;;
59880;SDS011;45751;51.380;10.326;2023-03-04T15:07:43;8.25;;;2.03;;
59880;SDS011;45751;51.380;10.326;2023-03-04T15:10:21;7.18;;;1.90;;
59880;SDS011;45751;51.380;10.326;2023-03-04T15:15:31;6.03;;;1.38;;
59880;SDS011;45751;51.380;10.326;2023-03-04T15:18:03;3.28;;;0.85;;
59880;SDS011;45751;51.380;10.326;2023-03-04T15:21:01;3.63;;;0.88;;
59880;SDS011;45751;51.380;10.326;2023-03-04T15:23:30;3.45;;;1.27;;
59880;SDS011;45751;51.380;10.326;2023-03-04T15:25:59;3.78;;;1.13;;
59880;SDS011;45751;51.380;10.326;2023-03-04T15:28:38;9.02;;;1.80;;
59880;SDS011;45751;51.380;10.326;2023-03-04T15:31:16;4.43;;;1.35;;
59880;SDS011;45751;51.380;10.326;2023-03-04T15:33:48;5.03;;;1.70;;
59880;SDS011;45751;51.380;10.326;2023-03-04T15:36:16;5.50;;;1.17;;
59880;SDS011;45751;51.380;10.326;2023-03-04T15:38:46;5.00;;;1.30;;
59880;SDS011;45751;51.380;10.326;2023-03-04T15:41:20;3.95;;;1.33;;
59880;SDS011;45751;51.380;10.326;2023-03-04T15:43:49;6.40;;;2.10;;
59880;SDS011;45751;51.380;10.326;2023-03-04T15:46:17;4.35;;;1.70;;
59880;SDS011;45751;51.380;10.326;2023-03-04T15:48:45;4.05;;;1.38;;
59880;SDS011;45751;51.380;10.326;2023-03-04T15:51:18;3.65;;;0.98;;
59880;SDS011;45751;51.380;10.326;2023-03-04T15:53:51;4.80;;;1.45;;
59880;SDS011;45751;51.380;10.326;2023-03-04T15:56:22;7.00;;;1.38;;
59880;SDS011;45751;51.380;10.326;2023-03-04T15:58:55;3.67;;;0.90;;
59880;SDS011;45751;51.380;10.326;2023-03-04T16:01:31;2.65;;;1.00;;
59880;SDS011;45751;51.380;10.326;2023-03-04T16:03:58;6.97;;;1.35;;
59880;SDS011;45751;51.380;10.326;2023-03-04T16:06:26;4.60;;;1.30;;
59880;SDS011;45751;51.380;10.326;2023-03-04T16:08:56;3.72;;;0.93;;
59880;SDS011;45751;51.380;10.326;2023-03-04T16:11:24;4.82;;;1.02;;
59880;SDS011;45751;51.380;10.326;2023-03-04T16:13:53;2.63;;;0.70;;
59880;SDS011;45751;51.380;10.326;2023-03-04T16:16:20;3.63;;;0.73;;
59880;SDS011;45751;51.380;10.326;2023-03-04T16:18:47;3.97;;;1.02;;
59880;SDS011;45751;51.380;10.326;2023-03-04T16:21:16;4.07;;;1.27;;
59880;SDS011;45751;51.380;10.326;2023-03-04T16:23:46;4.05;;;1.52;;
59880;SDS011;45751;51.380;10.326;2023-03-04T16:26:20;8.75;;;1.48;;
59880;SDS011;45751;51.380;10.326;2023-03-04T16:28:49;2.53;;;0.90;;
59880;SDS011;45751;51.380;10.326;2023-03-04T16:31:17;9.73;;;2.10;;
59880;SDS011;45751;51.380;10.326;2023-03-04T16:33:44;3.22;;;1.10;;
59880;SDS011;45751;51.380;10.326;2023-03-04T16:36:15;12.15;;;1.27;;
59880;SDS011;45751;51.380;10.326;2023-03-04T16:38:46;8.70;;;1.90;;
59880;SDS011;45751;51.380;10.326;2023-03-04T16:41:14;4.03;;;1.30;;
59880;SDS011;45751;51.380;10.326;2023-03-04T16:43:42;5.60;;;1.20;;
59880;SDS011;45751;51.380;10.326;2023-03-04T16:46:10;5.05;;;1.27;;
59880;SDS011;45751;51.380;10.326;2023-03-04T16:48:38;5.45;;;1.25;;
59880;SDS011;45751;51.380;10.326;2023-03-04T16:51:15;7.63;;;1.55;;
59880;SDS011;45751;51.380;10.326;2023-03-04T16:53:48;3.80;;;1.10;;
59880;SDS011;45751;51.380;10.326;2023-03-04T16:56:21;5.18;;;1.48;;
59880;SDS011;45751;51.380;10.326;2023-03-04T16:58:49;5.70;;;1.52;;
59880;SDS011;45751;51.380;10.326;2023-03-04T17:03:45;5.28;;;1.40;;
59880;SDS011;45751;51.380;10.326;2023-03-04T17:06:12;5.55;;;1.08;;
59880;SDS011;45751;51.380;10.326;2023-03-04T17:08:40;5.22;;;1.83;;
59880;SDS011;45751;51.380;10.326;2023-03-04T17:11:10;2.53;;;0.75;;
59880;SDS011;45751;51.380;10.326;2023-03-04T17:13:38;5.47;;;1.55;;
59880;SDS011;45751;51.380;10.326;2023-03-04T17:16:05;8.13;;;2.10;;
59880;SDS011;45751;51.380;10.326;2023-03-04T17:18:32;3.22;;;1.05;;
59880;SDS011;45751;51.380;10.326;2023-03-04T17:21:02;8.50;;;1.38;;